Time;durP1;ratioP1;P1;durP2;ratioP2;P2;SDS_P1;SDS_P2;PMS_P1;PMS_P2;Temp;Humidity;BMP_temperature;BMP_pressure;BME280_temperature;BME280_humidity;BME280_pressure;Samples;Min_cycle;Max_cycle;Signal;HPM_P1;HPM_P2
2020/12/29 00:00:58;;;;;;;1.45;0.45;;;20.40;41.60;;;;;;5010851;28;20549;-51
2020/12/29 00:03:24;;;;;;;2.88;0.70;;;20.40;41.70;;;;;;5031190;28;20038;-51
2020/12/29 00:05:50;;;;;;;0.88;0.52;;;20.40;41.70;;;;;;5033736;28;20148;-52
2020/12/29 00:08:17;;;;;;;1.80;0.93;;;20.30;41.70;;;;;;5012889;28;20025;-52
2020/12/29 00:10:43;;;;;;;1.40;0.47;;;20.30;41.70;;;;;;5029813;28;20030;-52
2020/12/29 00:13:09;;;;;;;1.50;0.55;;;20.30;41.70;;;;;;4998442;28;20030;-52
2020/12/29 00:15:39;;;;;;;1.00;0.57;;;20.30;41.80;;;;;;5023042;28;20040;-52
2020/12/29 00:18:05;;;;;;;1.27;0.65;;;20.30;41.70;;;;;;5032891;28;20550;-51
2020/12/29 00:20:31;;;;;;;2.00;0.50;;;20.20;41.70;;;;;;5040246;28;20033;-51
2020/12/29 00:22:57;;;;;;;1.10;0.65;;;20.20;41.80;;;;;;5028004;28;20045;-53
2020/12/29 00:25:22;;;;;;;0.88;0.38;;;20.20;41.70;;;;;;5031690;28;20052;-51
2020/12/29 00:27:48;;;;;;;0.80;0.47;;;20.30;41.60;;;;;;5032608;28;20037;-52
2020/12/29 00:30:13;;;;;;;1.67;0.50;;;20.30;41.50;;;;;;5016327;28;20025;-51
2020/12/29 00:32:39;;;;;;;1.40;0.73;;;20.30;41.50;;;;;;5017515;28;20110;-52
2020/12/29 00:35:05;;;;;;;1.60;0.52;;;20.30;41.50;;;;;;5017444;28;20402;-50
2020/12/29 00:37:30;;;;;;;1.42;0.57;;;20.20;41.70;;;;;;5032322;28;20030;-52
2020/12/29 00:39:56;;;;;;;1.20;0.70;;;20.10;41.70;;;;;;5031784;28;20521;-51
2020/12/29 00:42:22;;;;;;;1.00;0.55;;;20.10;41.70;;;;;;5025799;28;20060;-51
2020/12/29 00:44:47;;;;;;;1.27;0.63;;;20.10;41.80;;;;;;5032664;28;20029;-52
2020/12/29 00:47:13;;;;;;;1.27;0.60;;;20.10;41.80;;;;;;4998615;28;20483;-51
2020/12/29 00:49:39;;;;;;;1.00;0.50;;;20.10;41.80;;;;;;5032847;28;20669;-52
2020/12/29 00:52:05;;;;;;;0.90;0.40;;;20.10;41.80;;;;;;5014969;28;20034;-53
2020/12/29 00:54:31;;;;;;;1.10;0.43;;;20.10;41.90;;;;;;5028290;28;20486;-52
2020/12/29 00:56:58;;;;;;;1.13;0.40;;;20.00;41.80;;;;;;5018290;28;20034;-51
2020/12/29 00:59:23;;;;;;;0.90;0.45;;;20.00;41.90;;;;;;5029331;28;20033;-52
2020/12/29 01:01:54;;;;;;;0.95;0.40;;;20.00;41.80;;;;;;5019398;28;20026;-51
2020/12/29 01:04:19;;;;;;;1.10;0.50;;;20.00;41.80;;;;;;5031195;28;20091;-51
2020/12/29 01:06:45;;;;;;;0.65;0.40;;;20.00;41.90;;;;;;5016768;28;20030;-52
2020/12/29 01:09:10;;;;;;;1.10;0.50;;;20.00;41.90;;;;;;5027178;28;20131;-51
2020/12/29 01:11:36;;;;;;;0.88;0.40;;;20.00;41.90;;;;;;5027758;28;20064;-52
2020/12/29 01:14:02;;;;;;;1.92;0.70;;;20.00;41.90;;;;;;5031198;28;20033;-51
2020/12/29 01:16:27;;;;;;;0.90;0.30;;;20.00;41.90;;;;;;5025823;28;20041;-52
2020/12/29 01:18:53;;;;;;;0.82;0.25;;;20.00;41.90;;;;;;5017814;28;20029;-51
2020/12/29 01:21:18;;;;;;;0.65;0.38;;;19.90;41.80;;;;;;5018727;28;20124;-50
2020/12/29 01:23:44;;;;;;;0.80;0.30;;;19.90;41.80;;;;;;5012823;28;20029;-51
2020/12/29 01:26:09;;;;;;;1.55;0.50;;;19.90;41.90;;;;;;5012621;28;20033;-51
2020/12/29 01:28:37;;;;;;;0.75;0.38;;;19.90;41.90;;;;;;5013398;28;20451;-51
2020/12/29 01:31:03;;;;;;;1.00;0.40;;;19.80;42.00;;;;;;5019558;28;20518;-53
2020/12/29 01:33:28;;;;;;;0.95;0.40;;;19.80;42.00;;;;;;5005409;28;20041;-52
2020/12/29 01:35:54;;;;;;;2.15;0.47;;;19.80;42.40;;;;;;5031645;28;20029;-53
2020/12/29 01:38:20;;;;;;;1.50;0.40;;;19.80;41.90;;;;;;5035286;28;20036;-52
2020/12/29 01:40:46;;;;;;;0.77;0.40;;;19.80;41.90;;;;;;5031376;28;20082;-51
2020/12/29 01:43:12;;;;;;;0.60;0.30;;;19.80;42.00;;;;;;5022140;28;20037;-50
2020/12/29 01:45:38;;;;;;;0.98;0.30;;;19.80;42.00;;;;;;5016977;28;20036;-51
2020/12/29 01:48:03;;;;;;;0.95;0.30;;;19.80;42.00;;;;;;5029639;28;20021;-51
2020/12/29 01:50:29;;;;;;;2.08;0.28;;;19.70;42.00;;;;;;5031644;28;20026;-50
2020/12/29 01:52:57;;;;;;;2.47;0.40;;;19.70;42.00;;;;;;5039592;28;20120;-50
2020/12/29 01:55:23;;;;;;;1.58;0.47;;;19.70;41.90;;;;;;5000565;28;20030;-51
2020/12/29 01:57:48;;;;;;;0.85;0.40;;;19.70;42.00;;;;;;5051006;28;20111;-50
2020/12/29 02:00:14;;;;;;;0.98;0.32;;;19.70;42.00;;;;;;5041019;28;20557;-51
2020/12/29 02:02:40;;;;;;;1.02;0.50;;;19.70;42.00;;;;;;5027510;28;20038;-51
2020/12/29 02:05:07;;;;;;;0.70;0.20;;;19.70;42.00;;;;;;5024746;28;20029;-52
2020/12/29 02:07:34;;;;;;;0.63;0.20;;;19.70;42.00;;;;;;5020832;28;20050;-51
2020/12/29 02:10:00;;;;;;;0.88;0.40;;;19.70;42.00;;;;;;5030296;28;20029;-52
2020/12/29 02:12:27;;;;;;;0.77;0.35;;;19.70;42.00;;;;;;5031133;28;20033;-51
2020/12/29 02:14:54;;;;;;;1.00;0.30;;;19.70;42.00;;;;;;5033724;28;20103;-52
2020/12/29 02:17:20;;;;;;;0.98;0.20;;;19.60;42.00;;;;;;5026915;28;20037;-52
2020/12/29 02:19:46;;;;;;;0.80;0.38;;;19.60;41.90;;;;;;5020276;28;20486;-52
2020/12/29 02:22:25;;;;;;;0.60;0.20;;;19.60;42.00;;;;;;5029965;28;20489;-52
2020/12/29 02:24:56;;;;;;;0.70;0.30;;;19.60;42.10;;;;;;5027965;28;20151;-50
2020/12/29 02:27:24;;;;;;;0.63;0.30;;;19.60;42.10;;;;;;5031471;28;20029;-51
2020/12/29 02:29:50;;;;;;;1.00;0.40;;;19.60;42.50;;;;;;5026092;28;20033;-50
2020/12/29 02:32:18;;;;;;;0.80;0.30;;;19.60;42.00;;;;;;5019840;28;20029;-49
2020/12/29 02:34:43;;;;;;;0.60;0.30;;;19.60;42.10;;;;;;5023977;28;20035;-50
2020/12/29 02:37:10;;;;;;;1.60;0.30;;;19.60;42.10;;;;;;5023326;28;20422;-49
2020/12/29 02:39:40;;;;;;;0.95;0.32;;;19.60;41.90;;;;;;5027530;28;20079;-50
2020/12/29 02:42:07;;;;;;;1.15;0.30;;;19.60;42.00;;;;;;5025948;28;20034;-49
2020/12/29 02:44:33;;;;;;;1.23;0.25;;;19.60;41.90;;;;;;5013665;28;20030;-49
2020/12/29 02:46:59;;;;;;;1.17;0.30;;;19.60;42.00;;;;;;5019686;28;20116;-49
2020/12/29 02:49:24;;;;;;;0.70;0.30;;;19.60;41.90;;;;;;5025739;28;20117;-51
2020/12/29 02:51:50;;;;;;;2.33;0.28;;;19.60;42.00;;;;;;5011890;28;20425;-49
2020/12/29 02:54:16;;;;;;;0.70;0.30;;;19.60;41.90;;;;;;5016911;28;20155;-49
2020/12/29 02:56:42;;;;;;;1.15;0.30;;;19.60;41.90;;;;;;5028947;28;20061;-49
2020/12/29 02:59:11;;;;;;;0.93;0.40;;;19.60;41.90;;;;;;5017292;28;20109;-49
2020/12/29 03:01:37;;;;;;;1.30;0.32;;;19.60;41.80;;;;;;5045670;28;20030;-52
2020/12/29 03:04:02;;;;;;;0.85;0.30;;;19.60;41.90;;;;;;5021861;28;21813;-52
2020/12/29 03:06:28;;;;;;;0.70;0.25;;;19.50;41.90;;;;;;5027015;28;20078;-50
2020/12/29 03:08:54;;;;;;;0.63;0.20;;;19.50;41.90;;;;;;5031097;28;20018;-52
2020/12/29 03:11:27;;;;;;;1.10;0.20;;;19.60;41.90;;;;;;5014286;28;20030;-51
2020/12/29 03:13:54;;;;;;;0.60;0.20;;;19.50;41.80;;;;;;5029920;28;20037;-51
2020/12/29 03:16:20;;;;;;;0.77;0.30;;;19.50;41.90;;;;;;5059902;22;20041;-50
2020/12/29 03:18:46;;;;;;;0.82;0.22;;;19.50;42.00;;;;;;5028185;28;20067;-51
2020/12/29 03:21:11;;;;;;;0.50;0.20;;;19.40;42.00;;;;;;5045830;28;20555;-51
2020/12/29 03:23:37;;;;;;;0.60;0.20;;;19.40;42.00;;;;;;5036849;28;20722;-47
2020/12/29 03:26:02;;;;;;;0.75;0.20;;;19.40;42.00;;;;;;5021346;28;20112;-52
2020/12/29 03:28:28;;;;;;;1.10;0.25;;;19.40;42.00;;;;;;5011173;28;20052;-51
2020/12/29 03:30:54;;;;;;;0.57;0.22;;;19.40;42.00;;;;;;5041029;28;20025;-51
2020/12/29 03:33:19;;;;;;;1.10;0.30;;;19.40;42.10;;;;;;5018101;28;20026;-50
2020/12/29 03:35:45;;;;;;;0.32;0.20;;;19.40;42.00;;;;;;5026529;28;20112;-50
2020/12/29 03:38:10;;;;;;;0.60;0.20;;;19.40;42.10;;;;;;5041795;28;20029;-51
2020/12/29 03:40:36;;;;;;;0.80;0.30;;;19.40;42.10;;;;;;5028269;28;20029;-51
2020/12/29 03:43:01;;;;;;;0.73;0.30;;;19.40;42.10;;;;;;5034976;28;20043;-49
2020/12/29 03:45:27;;;;;;;0.45;0.20;;;19.30;42.10;;;;;;5033793;28;20029;-50
2020/12/29 03:47:54;;;;;;;0.40;0.10;;;19.30;42.10;;;;;;5039106;28;20497;-51
2020/12/29 03:50:19;;;;;;;0.80;0.20;;;19.30;42.10;;;;;;5034175;28;20017;-50
2020/12/29 03:52:46;;;;;;;0.95;0.25;;;19.30;42.10;;;;;;5027531;28;20483;-51
2020/12/29 03:55:12;;;;;;;0.50;0.20;;;19.30;42.10;;;;;;5023149;28;20021;-46
2020/12/29 03:57:37;;;;;;;0.50;0.30;;;19.30;42.10;;;;;;5031259;28;20446;-48
2020/12/29 04:00:05;;;;;;;0.77;0.20;;;19.30;42.10;;;;;;5045886;28;20094;-49
2020/12/29 04:02:31;;;;;;;0.82;0.30;;;19.20;42.10;;;;;;5032977;28;20034;-49
2020/12/29 04:04:57;;;;;;;0.77;0.20;;;19.20;42.10;;;;;;5034993;28;20029;-49
2020/12/29 04:07:22;;;;;;;0.75;0.20;;;19.30;42.20;;;;;;5046686;28;20497;-47
2020/12/29 04:09:48;;;;;;;0.52;0.30;;;19.20;42.20;;;;;;5032552;28;20057;-48
2020/12/29 04:12:13;;;;;;;0.80;0.20;;;19.20;42.10;;;;;;5017923;28;20026;-49
2020/12/29 04:14:39;;;;;;;0.82;0.20;;;19.30;42.00;;;;;;5041513;28;20095;-49
2020/12/29 04:17:04;;;;;;;0.70;0.10;;;19.30;42.00;;;;;;5043075;28;20040;-47
2020/12/29 04:19:30;;;;;;;0.60;0.28;;;19.20;42.00;;;;;;5027092;28;20663;-49
2020/12/29 04:21:56;;;;;;;0.50;0.20;;;19.20;42.10;;;;;;5041535;28;20060;-50
2020/12/29 04:24:21;;;;;;;0.68;0.10;;;19.20;42.10;;;;;;5027704;28;20087;-50
2020/12/29 04:26:47;;;;;;;0.40;0.20;;;19.20;42.00;;;;;;5047792;28;20033;-48
2020/12/29 04:29:12;;;;;;;1.08;0.20;;;19.20;42.00;;;;;;5045532;28;20049;-48
2020/12/29 04:31:38;;;;;;;0.30;0.10;;;19.20;42.10;;;;;;5040345;28;20037;-48
2020/12/29 04:34:03;;;;;;;0.40;0.20;;;19.20;42.10;;;;;;5036881;28;20734;-49
2020/12/29 04:36:29;;;;;;;0.55;0.20;;;19.10;42.10;;;;;;5043923;28;20498;-48
2020/12/29 04:38:55;;;;;;;0.50;0.20;;;19.10;42.10;;;;;;5032056;28;20099;-49
2020/12/29 04:41:20;;;;;;;0.40;0.10;;;19.10;42.10;;;;;;5039046;28;20108;-49
2020/12/29 04:43:46;;;;;;;0.40;0.20;;;19.10;42.10;;;;;;5018513;28;20045;-49
2020/12/29 04:46:12;;;;;;;0.45;0.20;;;19.10;42.20;;;;;;5024189;28;20604;-45
2020/12/29 04:48:38;;;;;;;0.47;0.15;;;19.10;42.20;;;;;;5012842;28;20017;-48
2020/12/29 04:51:07;;;;;;;0.45;0.10;;;19.10;42.20;;;;;;5035294;28;20037;-48
2020/12/29 04:53:34;;;;;;;0.50;0.20;;;19.10;42.30;;;;;;5039077;28;20040;-48
2020/12/29 04:56:08;;;;;;;0.20;0.10;;;19.10;42.30;;;;;;5041282;28;20075;-47
2020/12/29 04:58:35;;;;;;;1.38;0.10;;;19.00;42.20;;;;;;5022229;28;20107;-49
2020/12/29 05:01:07;;;;;;;0.47;0.10;;;19.00;42.20;;;;;;5019958;28;20045;-50
2020/12/29 05:03:43;;;;;;;0.40;0.10;;;19.00;42.20;;;;;;5035653;28;20033;-49
2020/12/29 05:06:09;;;;;;;0.57;0.13;;;19.00;42.30;;;;;;5030708;28;20033;-46
2020/12/29 05:08:35;;;;;;;0.57;0.10;;;19.00;42.20;;;;;;5020206;28;20090;-50
2020/12/29 05:11:00;;;;;;;0.40;0.10;;;19.00;42.30;;;;;;5037150;28;20386;-47
2020/12/29 05:13:26;;;;;;;0.38;0.10;;;19.00;42.30;;;;;;5046641;28;20555;-51
2020/12/29 05:15:51;;;;;;;0.50;0.15;;;19.00;42.30;;;;;;5034823;28;20037;-51
2020/12/29 05:18:17;;;;;;;0.75;0.15;;;19.00;42.20;;;;;;5037519;28;20405;-51
2020/12/29 05:20:44;;;;;;;0.40;0.15;;;18.90;42.20;;;;;;5045950;28;20386;-51
2020/12/29 05:23:09;;;;;;;0.60;0.10;;;18.90;42.20;;;;;;5041744;28;20036;-51
2020/12/29 05:25:40;;;;;;;0.40;0.15;;;19.00;42.30;;;;;;5035820;28;20032;-51
2020/12/29 05:28:06;;;;;;;0.50;0.10;;;19.00;42.30;;;;;;5019399;28;20026;-51
2020/12/29 05:30:32;;;;;;;0.30;0.10;;;18.90;42.20;;;;;;5049639;28;20025;-48
2020/12/29 05:32:57;;;;;;;0.40;0.10;;;18.90;42.20;;;;;;5033027;28;20033;-52
2020/12/29 05:35:24;;;;;;;0.30;0.10;;;18.90;42.20;;;;;;5041080;28;20029;-50
2020/12/29 05:37:52;;;;;;;0.57;0.10;;;18.90;42.20;;;;;;5014629;28;20029;-49
2020/12/29 05:40:29;;;;;;;0.50;0.17;;;18.90;42.30;;;;;;5041371;28;20453;-49
2020/12/29 05:42:57;;;;;;;0.52;0.10;;;18.90;42.30;;;;;;5028965;28;20056;-50
2020/12/29 05:45:41;;;;;;;0.40;0.10;;;18.90;42.20;;;;;;5038727;28;20040;-51
2020/12/29 05:48:06;;;;;;;0.30;0.10;;;18.90;42.30;;;;;;5029606;28;20176;-50
2020/12/29 05:50:33;;;;;;;0.43;0.10;;;18.90;42.30;;;;;;5036200;28;20649;-50
2020/12/29 05:53:04;;;;;;;0.40;0.10;;;18.80;42.30;;;;;;5039873;28;20037;-51
2020/12/29 05:55:35;;;;;;;0.28;0.08;;;18.80;42.30;;;;;;5039274;28;20424;-49
2020/12/29 05:58:03;;;;;;;0.25;0.10;;;18.80;42.30;;;;;;5046162;28;20041;-50
2020/12/29 06:00:29;;;;;;;0.40;0.10;;;18.80;42.30;;;;;;5039900;28;20531;-49
2020/12/29 06:02:59;;;;;;;0.25;0.10;;;18.80;42.30;;;;;;5039259;28;20025;-51
2020/12/29 06:05:26;;;;;;;0.40;0.10;;;18.90;42.30;;;;;;4992120;28;20055;-50
2020/12/29 06:07:53;;;;;;;0.20;0.10;;;19.00;42.20;;;;;;5026324;28;20030;-49
2020/12/29 06:10:19;;;;;;;0.25;0.05;;;19.00;41.90;;;;;;5037870;28;20026;-46
2020/12/29 06:13:01;;;;;;;0.32;0.00;;;19.10;41.80;;;;;;5026339;28;20494;-49
2020/12/29 06:15:29;;;;;;;0.30;0.10;;;19.20;41.70;;;;;;5016631;28;20033;-50
2020/12/29 06:17:59;;;;;;;0.20;0.10;;;19.30;41.50;;;;;;5047118;28;20081;-50
2020/12/29 06:20:37;;;;;;;0.52;0.10;;;19.40;41.30;;;;;;5018667;28;20564;-49
2020/12/29 06:23:04;;;;;;;0.22;0.05;;;19.50;41.20;;;;;;5027534;28;20029;-50
2020/12/29 06:25:35;;;;;;;0.60;0.10;;;19.50;41.10;;;;;;5030850;28;20053;-48
2020/12/29 06:28:03;;;;;;;0.28;0.10;;;19.50;41.00;;;;;;5023664;28;20029;-49
2020/12/29 06:30:29;;;;;;;0.28;0.00;;;19.60;41.00;;;;;;5041020;28;20021;-48
2020/12/29 06:32:56;;;;;;;0.25;0.05;;;19.60;41.00;;;;;;5045754;28;20125;-48
2020/12/29 06:35:22;;;;;;;0.20;0.08;;;19.60;41.00;;;;;;5044758;28;20029;-49
2020/12/29 06:37:52;;;;;;;0.22;0.10;;;19.60;41.00;;;;;;5034085;28;20105;-48
2020/12/29 06:40:20;;;;;;;0.30;0.10;;;19.60;41.10;;;;;;5019128;28;20053;-48
2020/12/29 06:42:46;;;;;;;0.45;0.10;;;19.70;41.00;;;;;;5027140;28;20688;-50
2020/12/29 06:45:12;;;;;;;0.45;0.08;;;19.80;40.90;;;;;;5008582;28;20021;-47
2020/12/29 06:47:46;;;;;;;0.30;0.10;;;20.00;40.60;;;;;;5031220;28;20113;-48
2020/12/29 06:50:32;;;;;;;0.45;0.10;;;20.20;40.40;;;;;;5028125;28;20061;-47
2020/12/29 06:53:01;;;;;;;0.20;0.00;;;20.30;40.20;;;;;;5039888;28;20062;-50
2020/12/29 06:55:43;;;;;;;0.45;0.10;;;20.20;40.80;;;;;;5041258;28;20651;-47
2020/12/29 06:58:10;;;;;;;0.40;0.10;;;20.30;40.80;;;;;;5022380;28;20030;-47
2020/12/29 07:00:36;;;;;;;0.10;0.00;;;20.40;40.20;;;;;;5012494;28;20087;-48
2020/12/29 07:03:02;;;;;;;0.20;0.05;;;20.40;40.10;;;;;;5040660;28;20033;-49
2020/12/29 07:05:30;;;;;;;0.30;0.10;;;20.40;40.20;;;;;;4994777;28;20030;-49
2020/12/29 07:08:06;;;;;;;0.30;0.10;;;20.40;40.20;;;;;;5024359;28;20056;-47
2020/12/29 07:10:38;;;;;;;0.10;0.00;;;20.40;40.10;;;;;;5025551;28;20028;-50
2020/12/29 07:13:13;;;;;;;0.40;0.10;;;20.40;40.20;;;;;;5036322;28;20048;-51
2020/12/29 07:15:57;;;;;;;0.20;0.00;;;20.30;40.20;;;;;;5028379;28;20029;-51
2020/12/29 07:18:27;;;;;;;0.30;0.10;;;20.30;40.30;;;;;;5042387;28;20465;-51
2020/12/29 07:20:58;;;;;;;0.28;0.10;;;20.30;40.40;;;;;;5043654;28;20453;-50
2020/12/29 07:23:28;;;;;;;0.13;0.10;;;20.20;40.50;;;;;;5043555;28;20060;-50
2020/12/29 07:25:58;;;;;;;0.10;0.00;;;20.20;40.50;;;;;;5025485;28;20080;-50
2020/12/29 07:28:25;;;;;;;0.55;0.10;;;20.20;40.60;;;;;;5047849;28;20430;-50
2020/12/29 07:30:51;;;;;;;1.13;0.17;;;20.10;40.60;;;;;;5043496;28;20115;-49
2020/12/29 07:33:21;;;;;;;0.50;0.10;;;20.10;40.60;;;;;;5032514;28;20034;-50
2020/12/29 07:35:48;;;;;;;0.80;0.10;;;20.00;40.70;;;;;;5021488;28;20371;-48
2020/12/29 07:38:18;;;;;;;0.30;0.10;;;20.00;40.90;;;;;;5030954;28;20056;-45
2020/12/29 07:40:44;;;;;;;0.13;0.10;;;19.90;41.00;;;;;;5033445;28;20570;-49
2020/12/29 07:43:09;;;;;;;0.22;0.10;;;19.80;41.10;;;;;;5031004;28;20118;-48
2020/12/29 07:45:36;;;;;;;1.30;0.00;;;19.80;41.20;;;;;;5042154;28;20124;-51
2020/12/29 07:48:04;;;;;;;0.57;0.10;;;19.70;41.40;;;;;;5036384;28;20037;-51
2020/12/29 07:50:30;;;;;;;0.50;0.10;;;19.70;41.60;;;;;;5040680;28;20498;-46
2020/12/29 07:53:04;;;;;;;0.35;0.10;;;19.70;41.70;;;;;;5033661;28;20024;-50
2020/12/29 07:55:29;;;;;;;0.60;0.10;;;19.60;41.70;;;;;;5048078;28;20251;-47
2020/12/29 07:57:56;;;;;;;0.60;0.15;;;19.60;41.60;;;;;;5051755;28;20107;-50
2020/12/29 08:00:22;;;;;;;0.80;0.10;;;19.60;41.50;;;;;;5045084;28;20506;-46
2020/12/29 08:02:52;;;;;;;0.43;0.10;;;19.60;41.30;;;;;;5034708;28;20041;-51
2020/12/29 08:05:27;;;;;;;0.65;0.30;;;19.60;41.40;;;;;;5023742;28;20025;-50
2020/12/29 08:07:54;;;;;;;0.80;0.15;;;19.60;41.30;;;;;;5029509;28;20018;-48
2020/12/29 08:10:21;;;;;;;0.50;0.13;;;19.50;41.30;;;;;;5026044;28;20036;-52
2020/12/29 08:13:16;;;;;;;0.40;0.10;;;19.60;41.20;;;;;;5045767;28;20033;-48
2020/12/29 08:15:43;;;;;;;1.67;0.20;;;19.60;41.00;;;;;;5031054;28;20049;-52
2020/12/29 08:18:20;;;;;;;0.68;0.20;;;19.60;41.00;;;;;;5042889;28;20058;-49
2020/12/29 08:20:47;;;;;;;0.75;0.08;;;19.70;41.00;;;;;;5012514;28;20021;-52
2020/12/29 08:23:15;;;;;;;0.30;0.10;;;19.80;41.00;;;;;;5039175;28;20530;-50
2020/12/29 08:25:46;;;;;;;0.55;0.20;;;19.90;40.80;;;;;;5029128;28;20220;-46
2020/12/29 08:28:12;;;;;;;0.90;0.20;;;20.00;40.60;;;;;;4996558;28;20025;-49
2020/12/29 08:30:38;;;;;;;1.30;0.10;;;20.20;40.30;;;;;;5015635;28;20040;-48
2020/12/29 08:33:05;;;;;;;1.60;0.20;;;20.20;40.20;;;;;;5021368;28;20044;-48
2020/12/29 08:35:51;;;;;;;0.80;0.20;;;20.20;40.20;;;;;;5029048;28;20029;-45
2020/12/29 08:38:30;;;;;;;0.68;0.20;;;20.20;40.20;;;;;;5036365;28;20033;-44
2020/12/29 08:41:05;;;;;;;0.70;0.30;;;20.20;40.40;;;;;;5027763;28;20026;-42
2020/12/29 08:43:35;;;;;;;0.75;0.40;;;20.20;40.50;;;;;;5036227;28;20067;-42
2020/12/29 08:46:03;;;;;;;1.00;0.25;;;20.30;40.60;;;;;;5034299;28;20116;-47
2020/12/29 08:48:29;;;;;;;1.15;0.25;;;20.30;40.70;;;;;;5027719;28;20028;-47
2020/12/29 08:50:55;;;;;;;0.85;0.20;;;20.30;40.70;;;;;;5030437;28;20025;-48
2020/12/29 08:53:24;;;;;;;1.05;0.40;;;20.40;40.60;;;;;;5035823;28;20148;-49
2020/12/29 08:55:50;;;;;;;0.80;0.30;;;20.50;40.60;;;;;;5027738;28;20036;-47
2020/12/29 08:58:24;;;;;;;0.60;0.20;;;20.60;40.60;;;;;;5023851;28;20022;-49
2020/12/29 09:00:50;;;;;;;1.58;0.35;;;20.50;40.50;;;;;;5021461;28;20437;-50
2020/12/29 09:03:24;;;;;;;0.90;0.40;;;20.50;40.60;;;;;;5019088;28;20152;-46
2020/12/29 09:05:53;;;;;;;1.50;0.38;;;20.50;40.60;;;;;;5000988;28;20446;-49
2020/12/29 09:08:31;;;;;;;1.27;0.40;;;20.50;40.70;;;;;;5019533;28;20025;-47
2020/12/29 09:11:09;;;;;;;0.70;0.30;;;20.50;40.60;;;;;;5011775;28;20032;-45
2020/12/29 09:13:35;;;;;;;1.05;0.50;;;20.50;40.60;;;;;;5032011;28;20021;-48
2020/12/29 09:16:21;;;;;;;0.80;0.40;;;20.40;41.10;;;;;;5039586;22;20045;-48
2020/12/29 09:18:46;;;;;;;0.75;0.30;;;20.40;40.60;;;;;;5007616;28;20056;-48
2020/12/29 09:21:25;;;;;;;1.10;0.30;;;20.40;40.70;;;;;;5050000;28;20039;-50
2020/12/29 09:24:03;;;;;;;1.27;0.50;;;20.40;40.80;;;;;;5029322;28;20037;-50
2020/12/29 09:26:29;;;;;;;1.60;0.50;;;20.30;40.80;;;;;;5052952;28;20099;-50
2020/12/29 09:28:56;;;;;;;1.70;0.88;;;20.30;40.90;;;;;;5058125;28;20032;-50
2020/12/29 09:31:26;;;;;;;1.48;0.50;;;20.30;40.90;;;;;;5056592;28;20025;-49
2020/12/29 09:33:52;;;;;;;2.00;0.73;;;20.30;40.90;;;;;;5054492;28;20037;-47
2020/12/29 09:36:20;;;;;;;1.30;0.73;;;20.20;40.90;;;;;;5048547;28;20653;-50
2020/12/29 09:38:50;;;;;;;1.30;0.65;;;20.20;41.00;;;;;;5048939;28;20028;-51
2020/12/29 09:41:16;;;;;;;1.92;0.50;;;20.10;40.90;;;;;;5047989;28;20112;-51
2020/12/29 09:43:44;;;;;;;1.77;0.95;;;20.10;41.00;;;;;;5048685;28;20060;-51
2020/12/29 09:46:10;;;;;;;1.33;0.68;;;20.10;41.20;;;;;;5042952;28;20044;-51
2020/12/29 09:48:35;;;;;;;2.85;0.95;;;20.00;41.10;;;;;;5030350;28;20482;-47
2020/12/29 09:51:01;;;;;;;1.80;1.00;;;20.00;41.20;;;;;;5049559;28;20036;-49
2020/12/29 09:53:26;;;;;;;1.55;0.95;;;20.00;41.20;;;;;;5047402;28;20040;-48
2020/12/29 09:55:54;;;;;;;8.40;1.83;;;20.00;41.20;;;;;;5046112;28;20068;-40
2020/12/29 09:58:20;;;;;;;4.05;1.13;;;20.00;41.30;;;;;;5047334;28;20110;-41
2020/12/29 10:00:47;;;;;;;2.08;1.15;;;20.00;41.10;;;;;;5040364;28;20049;-40
2020/12/29 10:03:15;;;;;;;2.17;1.02;;;20.00;41.20;;;;;;5018542;28;20071;-46
2020/12/29 10:05:42;;;;;;;2.00;0.93;;;20.10;41.20;;;;;;5046989;28;20505;-46
2020/12/29 10:08:07;;;;;;;1.58;1.10;;;20.20;41.20;;;;;;5046862;28;20059;-47
2020/12/29 10:10:33;;;;;;;1.77;1.10;;;20.20;41.20;;;;;;5040036;28;20088;-41
2020/12/29 10:12:58;;;;;;;1.65;1.35;;;20.20;41.20;;;;;;5026125;28;20116;-43
2020/12/29 10:15:24;;;;;;;1.73;1.00;;;20.30;41.30;;;;;;5042720;28;20087;-47
2020/12/29 10:17:50;;;;;;;1.98;0.73;;;20.40;41.20;;;;;;5043213;28;20481;-48
2020/12/29 10:20:15;;;;;;;2.83;1.20;;;20.50;41.00;;;;;;5044193;28;20562;-47
2020/12/29 10:22:41;;;;;;;2.78;1.38;;;20.60;40.90;;;;;;5015844;28;20112;-38
2020/12/29 10:25:10;;;;;;;3.20;1.20;;;20.60;40.80;;;;;;5040101;28;20792;-46
2020/12/29 10:27:37;;;;;;;3.75;1.17;;;20.80;40.60;;;;;;5057055;28;20552;-44
2020/12/29 10:30:03;;;;;;;2.90;1.05;;;20.90;40.50;;;;;;5047094;28;20025;-42
2020/12/29 10:32:29;;;;;;;3.17;1.45;;;20.90;40.40;;;;;;5047499;28;20709;-45
2020/12/29 10:34:54;;;;;;;2.55;1.55;;;20.90;40.50;;;;;;5043842;28;20032;-39
2020/12/29 10:37:20;;;;;;;1.90;0.93;;;20.90;40.60;;;;;;5044460;28;20083;-43
2020/12/29 10:39:45;;;;;;;2.42;0.70;;;20.90;40.60;;;;;;5028129;28;20130;-46
2020/12/29 10:42:11;;;;;;;2.85;0.80;;;20.90;40.60;;;;;;5041174;28;20036;-47
2020/12/29 10:44:37;;;;;;;1.27;0.75;;;21.00;40.70;;;;;;5025824;28;20032;-45
2020/12/29 10:47:02;;;;;;;2.35;1.35;;;21.00;40.60;;;;;;5047227;28;20094;-45
2020/12/29 10:49:28;;;;;;;4.70;1.50;;;20.90;40.70;;;;;;5040333;28;20036;-44
2020/12/29 10:51:53;;;;;;;2.15;1.05;;;21.00;40.60;;;;;;5034607;28;20087;-43
2020/12/29 10:54:19;;;;;;;2.88;1.25;;;21.10;40.50;;;;;;5047897;28;20029;-42
2020/12/29 10:56:44;;;;;;;1.40;1.00;;;21.10;40.40;;;;;;5048027;28;20044;-44
2020/12/29 10:59:10;;;;;;;1.98;1.00;;;21.10;40.10;;;;;;5044930;28;20029;-43
2020/12/29 11:01:36;;;;;;;1.38;0.90;;;21.20;40.10;;;;;;5045132;28;20060;-46
2020/12/29 11:04:02;;;;;;;2.22;1.08;;;21.20;40.10;;;;;;5047106;28;20104;-47
2020/12/29 11:06:27;;;;;;;1.50;0.93;;;21.20;40.00;;;;;;5042405;28;20120;-46
2020/12/29 11:08:53;;;;;;;2.03;1.17;;;21.20;40.00;;;;;;5038523;28;20044;-47
2020/12/29 11:11:19;;;;;;;1.83;1.48;;;21.20;40.00;;;;;;5046394;28;20041;-47
2020/12/29 11:13:45;;;;;;;3.58;1.40;;;21.20;40.10;;;;;;5047080;28;20112;-46
2020/12/29 11:16:19;;;;;;;2.83;1.25;;;21.20;40.00;;;;;;5045384;28;20053;-43
2020/12/29 11:18:46;;;;;;;2.70;1.13;;;21.20;40.10;;;;;;5047075;28;20563;-46
2020/12/29 11:21:14;;;;;;;2.20;1.38;;;21.20;40.30;;;;;;5051298;28;20049;-45
2020/12/29 11:23:40;;;;;;;2.70;1.38;;;21.20;40.40;;;;;;5039311;28;20091;-49
2020/12/29 11:26:06;;;;;;;2.60;1.35;;;21.20;40.50;;;;;;5050420;28;20087;-43
2020/12/29 11:28:31;;;;;;;2.65;1.17;;;21.30;40.40;;;;;;5050904;28;20027;-45
2020/12/29 11:30:57;;;;;;;1.42;1.20;;;21.40;40.30;;;;;;5033831;28;20021;-44
2020/12/29 11:33:22;;;;;;;3.75;1.60;;;21.50;40.40;;;;;;5050371;28;20119;-49
2020/12/29 11:35:48;;;;;;;2.22;1.38;;;21.50;40.40;;;;;;5047230;28;20052;-44
2020/12/29 11:38:15;;;;;;;1.80;1.48;;;21.50;40.30;;;;;;5045384;28;20040;-48
2020/12/29 11:40:41;;;;;;;2.90;1.10;;;21.50;40.40;;;;;;5050903;28;20041;-45
2020/12/29 11:43:06;;;;;;;2.50;1.63;;;21.50;40.30;;;;;;5050413;28;20110;-49
2020/12/29 11:45:32;;;;;;;1.95;0.93;;;21.50;40.40;;;;;;5050531;28;20028;-49
2020/12/29 11:47:57;;;;;;;2.17;1.20;;;21.50;40.40;;;;;;5050688;28;20032;-47
2020/12/29 11:50:23;;;;;;;1.10;0.77;;;21.50;40.50;;;;;;5051512;28;20041;-48
2020/12/29 11:52:48;;;;;;;1.85;1.45;;;21.50;40.50;;;;;;5048920;28;20592;-42
2020/12/29 11:55:14;;;;;;;2.33;1.27;;;21.40;41.20;;;;;;5049864;28;20398;-41
2020/12/29 11:57:40;;;;;;;1.33;1.02;;;21.40;40.90;;;;;;5049572;28;20037;-47
2020/12/29 12:00:07;;;;;;;2.80;1.30;;;21.30;41.10;;;;;;5050295;28;20099;-50
2020/12/29 12:02:32;;;;;;;3.30;1.30;;;21.30;41.30;;;;;;5046689;28;20039;-49
2020/12/29 12:04:58;;;;;;;2.83;1.42;;;21.30;41.30;;;;;;5042705;28;20159;-49
2020/12/29 12:07:23;;;;;;;5.57;1.50;;;21.30;41.40;;;;;;5046426;28;20087;-42
2020/12/29 12:09:49;;;;;;;3.33;1.35;;;21.10;41.30;;;;;;5034411;28;20088;-46
2020/12/29 12:12:14;;;;;;;1.90;1.38;;;21.10;41.50;;;;;;5044112;28;20055;-49
2020/12/29 12:14:40;;;;;;;3.00;1.52;;;21.00;41.70;;;;;;5051806;28;20037;-45
2020/12/29 12:17:05;;;;;;;3.25;1.95;;;21.10;41.60;;;;;;5052183;28;20036;-45
2020/12/29 12:19:31;;;;;;;2.85;1.50;;;21.00;41.70;;;;;;5041284;28;20065;-45
2020/12/29 12:21:56;;;;;;;4.30;1.83;;;21.00;41.90;;;;;;5038606;28;20034;-43
2020/12/29 12:24:22;;;;;;;7.15;1.88;;;21.00;41.90;;;;;;5048474;28;20032;-49
2020/12/29 12:26:50;;;;;;;6.40;2.13;;;20.90;41.70;;;;;;5041420;28;20156;-47
2020/12/29 12:29:15;;;;;;;2.28;1.90;;;20.90;41.70;;;;;;5042118;28;20021;-46
2020/12/29 12:31:41;;;;;;;3.15;1.98;;;20.90;41.90;;;;;;5000555;28;20036;-48
2020/12/29 12:34:06;;;;;;;2.40;1.70;;;21.00;41.90;;;;;;5018286;28;20037;-44
2020/12/29 12:36:32;;;;;;;2.42;1.85;;;20.90;41.70;;;;;;5036308;28;20112;-38
2020/12/29 12:38:57;;;;;;;3.22;1.75;;;20.90;41.70;;;;;;5040377;28;20506;-43
2020/12/29 12:41:23;;;;;;;2.55;2.00;;;21.00;41.80;;;;;;5045502;28;20127;-45
2020/12/29 12:43:49;;;;;;;2.50;1.58;;;21.10;41.60;;;;;;5036701;28;20116;-44
2020/12/29 12:46:14;;;;;;;4.05;1.85;;;21.20;41.40;;;;;;5046393;28;20360;-41
2020/12/29 12:48:41;;;;;;;2.80;1.90;;;21.30;41.30;;;;;;5049434;28;20460;-45